sensor_id;sensor_type;location;lat;lon;timestamp;P1;durP1;ratioP1;P2;durP2;ratioP2
26375;SDS011;30544;42.196;24.336;2022-07-29T00:01:25;13.68;;;5.88;;
26375;SDS011;30544;42.196;24.336;2022-07-29T00:03:52;14.63;;;6.68;;
26375;SDS011;30544;42.196;24.336;2022-07-29T00:06:19;10.55;;;4.93;;
26375;SDS011;30544;42.196;24.336;2022-07-29T00:08:47;9.57;;;5.18;;
26375;SDS011;30544;42.196;24.336;2022-07-29T00:11:14;8.00;;;4.95;;
26375;SDS011;30544;42.196;24.336;2022-07-29T00:13:41;8.70;;;4.97;;
26375;SDS011;30544;42.196;24.336;2022-07-29T00:16:08;10.73;;;4.20;;
26375;SDS011;30544;42.196;24.336;2022-07-29T00:18:35;8.80;;;4.45;;
26375;SDS011;30544;42.196;24.336;2022-07-29T00:21:01;12.00;;;4.63;;
26375;SDS011;30544;42.196;24.336;2022-07-29T00:23:28;9.50;;;4.10;;
26375;SDS011;30544;42.196;24.336;2022-07-29T00:25:56;7.00;;;4.40;;
26375;SDS011;30544;42.196;24.336;2022-07-29T00:28:23;8.65;;;4.18;;
26375;SDS011;30544;42.196;24.336;2022-07-29T00:30:51;6.45;;;4.20;;
26375;SDS011;30544;42.196;24.336;2022-07-29T00:33:18;6.57;;;4.25;;
26375;SDS011;30544;42.196;24.336;2022-07-29T00:35:45;6.70;;;4.13;;
26375;SDS011;30544;42.196;24.336;2022-07-29T00:38:12;5.15;;;4.13;;
26375;SDS011;30544;42.196;24.336;2022-07-29T00:40:39;8.38;;;4.78;;
26375;SDS011;30544;42.196;24.336;2022-07-29T00:43:08;5.25;;;4.20;;
26375;SDS011;30544;42.196;24.336;2022-07-29T00:45:36;5.75;;;4.47;;
26375;SDS011;30544;42.196;24.336;2022-07-29T00:48:03;12.05;;;4.18;;
26375;SDS011;30544;42.196;24.336;2022-07-29T00:50:31;7.63;;;4.18;;
26375;SDS011;30544;42.196;24.336;2022-07-29T00:52:58;5.72;;;4.20;;
26375;SDS011;30544;42.196;24.336;2022-07-29T00:55:26;7.75;;;4.28;;
26375;SDS011;30544;42.196;24.336;2022-07-29T00:57:55;10.68;;;4.57;;
26375;SDS011;30544;42.196;24.336;2022-07-29T01:00:26;7.10;;;4.45;;
26375;SDS011;30544;42.196;24.336;2022-07-29T01:02:53;8.30;;;4.50;;
26375;SDS011;30544;42.196;24.336;2022-07-29T01:05:21;10.13;;;4.38;;
26375;SDS011;30544;42.196;24.336;2022-07-29T01:07:51;10.07;;;4.53;;
26375;SDS011;30544;42.196;24.336;2022-07-29T01:10:19;8.88;;;5.13;;
26375;SDS011;30544;42.196;24.336;2022-07-29T01:12:48;8.27;;;4.90;;
26375;SDS011;30544;42.196;24.336;2022-07-29T01:15:17;7.57;;;4.85;;
26375;SDS011;30544;42.196;24.336;2022-07-29T01:17:45;6.65;;;4.50;;
26375;SDS011;30544;42.196;24.336;2022-07-29T01:20:20;10.30;;;4.75;;
26375;SDS011;30544;42.196;24.336;2022-07-29T01:28:58;8.90;;;5.15;;
26375;SDS011;30544;42.196;24.336;2022-07-29T01:31:31;7.55;;;4.93;;
26375;SDS011;30544;42.196;24.336;2022-07-29T01:34:05;9.30;;;5.30;;
26375;SDS011;30544;42.196;24.336;2022-07-29T01:36:36;10.73;;;5.93;;
26375;SDS011;30544;42.196;24.336;2022-07-29T01:39:08;11.15;;;6.35;;
26375;SDS011;30544;42.196;24.336;2022-07-29T01:41:38;7.43;;;4.93;;
26375;SDS011;30544;42.196;24.336;2022-07-29T01:44:25;9.65;;;5.97;;
26375;SDS011;30544;42.196;24.336;2022-07-29T01:46:57;7.60;;;6.20;;
26375;SDS011;30544;42.196;24.336;2022-07-29T01:49:28;6.72;;;5.85;;
26375;SDS011;30544;42.196;24.336;2022-07-29T01:51:59;10.07;;;6.68;;
26375;SDS011;30544;42.196;24.336;2022-07-29T01:54:32;10.60;;;5.55;;
26375;SDS011;30544;42.196;24.336;2022-07-29T01:57:04;13.27;;;6.75;;
26375;SDS011;30544;42.196;24.336;2022-07-29T01:59:34;7.90;;;6.45;;
26375;SDS011;30544;42.196;24.336;2022-07-29T02:02:03;15.15;;;7.45;;
26375;SDS011;30544;42.196;24.336;2022-07-29T02:04:33;10.70;;;7.13;;
26375;SDS011;30544;42.196;24.336;2022-07-29T02:07:03;11.38;;;8.00;;
26375;SDS011;30544;42.196;24.336;2022-07-29T02:09:32;11.95;;;8.10;;
26375;SDS011;30544;42.196;24.336;2022-07-29T02:12:03;12.02;;;8.52;;
26375;SDS011;30544;42.196;24.336;2022-07-29T02:14:33;11.30;;;9.00;;
26375;SDS011;30544;42.196;24.336;2022-07-29T02:17:03;13.43;;;8.95;;
26375;SDS011;30544;42.196;24.336;2022-07-29T02:19:30;9.98;;;8.73;;
26375;SDS011;30544;42.196;24.336;2022-07-29T02:21:59;13.73;;;8.98;;
26375;SDS011;30544;42.196;24.336;2022-07-29T02:24:27;13.90;;;9.40;;
26375;SDS011;30544;42.196;24.336;2022-07-29T02:26:56;11.20;;;9.18;;
26375;SDS011;30544;42.196;24.336;2022-07-29T02:29:25;10.98;;;8.75;;
26375;SDS011;30544;42.196;24.336;2022-07-29T02:31:54;13.75;;;10.57;;
26375;SDS011;30544;42.196;24.336;2022-07-29T02:34:24;13.25;;;10.48;;
26375;SDS011;30544;42.196;24.336;2022-07-29T02:36:51;15.30;;;10.10;;
26375;SDS011;30544;42.196;24.336;2022-07-29T02:39:20;13.88;;;10.00;;
26375;SDS011;30544;42.196;24.336;2022-07-29T02:41:50;16.30;;;10.38;;
26375;SDS011;30544;42.196;24.336;2022-07-29T02:44:19;17.25;;;10.35;;
26375;SDS011;30544;42.196;24.336;2022-07-29T02:46:50;12.13;;;9.05;;
26375;SDS011;30544;42.196;24.336;2022-07-29T02:49:26;11.98;;;10.20;;
26375;SDS011;30544;42.196;24.336;2022-07-29T02:52:02;11.68;;;9.63;;
26375;SDS011;30544;42.196;24.336;2022-07-29T02:54:31;12.15;;;9.60;;
26375;SDS011;30544;42.196;24.336;2022-07-29T02:57:05;13.55;;;8.38;;
26375;SDS011;30544;42.196;24.336;2022-07-29T02:59:36;11.65;;;8.30;;
26375;SDS011;30544;42.196;24.336;2022-07-29T03:02:07;12.40;;;8.50;;
26375;SDS011;30544;42.196;24.336;2022-07-29T03:04:37;12.40;;;8.15;;
26375;SDS011;30544;42.196;24.336;2022-07-29T03:07:06;15.00;;;8.27;;
26375;SDS011;30544;42.196;24.336;2022-07-29T03:09:34;9.55;;;8.35;;
26375;SDS011;30544;42.196;24.336;2022-07-29T03:12:03;9.45;;;8.48;;
26375;SDS011;30544;42.196;24.336;2022-07-29T03:14:31;13.23;;;8.90;;
26375;SDS011;30544;42.196;24.336;2022-07-29T03:16:58;12.25;;;9.73;;
26375;SDS011;30544;42.196;24.336;2022-07-29T03:19:26;12.60;;;9.70;;
26375;SDS011;30544;42.196;24.336;2022-07-29T03:21:56;11.32;;;9.27;;
26375;SDS011;30544;42.196;24.336;2022-07-29T03:24:28;10.85;;;9.20;;
26375;SDS011;30544;42.196;24.336;2022-07-29T03:26:56;16.00;;;10.20;;
26375;SDS011;30544;42.196;24.336;2022-07-29T03:29:23;13.52;;;8.95;;
26375;SDS011;30544;42.196;24.336;2022-07-29T03:31:50;12.93;;;9.40;;
26375;SDS011;30544;42.196;24.336;2022-07-29T03:34:17;17.08;;;10.13;;
26375;SDS011;30544;42.196;24.336;2022-07-29T03:36:44;17.67;;;10.70;;
26375;SDS011;30544;42.196;24.336;2022-07-29T03:39:13;11.45;;;9.85;;
26375;SDS011;30544;42.196;24.336;2022-07-29T03:41:43;12.48;;;9.77;;
26375;SDS011;30544;42.196;24.336;2022-07-29T03:44:12;13.45;;;10.23;;
26375;SDS011;30544;42.196;24.336;2022-07-29T03:46:41;15.90;;;10.60;;
26375;SDS011;30544;42.196;24.336;2022-07-29T03:49:10;16.20;;;10.70;;
26375;SDS011;30544;42.196;24.336;2022-07-29T03:51:39;18.23;;;9.95;;
26375;SDS011;30544;42.196;24.336;2022-07-29T03:54:06;10.88;;;8.90;;
26375;SDS011;30544;42.196;24.336;2022-07-29T03:56:37;72.20;;;35.88;;
26375;SDS011;30544;42.196;24.336;2022-07-29T03:59:05;199.00;;;82.82;;
26375;SDS011;30544;42.196;24.336;2022-07-29T04:01:33;261.35;;;109.43;;
26375;SDS011;30544;42.196;24.336;2022-07-29T04:04:01;222.20;;;105.95;;
26375;SDS011;30544;42.196;24.336;2022-07-29T04:06:36;218.32;;;101.78;;
26375;SDS011;30544;42.196;24.336;2022-07-29T04:09:04;334.92;;;144.70;;
26375;SDS011;30544;42.196;24.336;2022-07-29T04:11:31;43.38;;;23.13;;
26375;SDS011;30544;42.196;24.336;2022-07-29T04:14:00;84.75;;;40.95;;
26375;SDS011;30544;42.196;24.336;2022-07-29T04:16:27;210.50;;;107.88;;
26375;SDS011;30544;42.196;24.336;2022-07-29T04:18:53;52.42;;;30.38;;
26375;SDS011;30544;42.196;24.336;2022-07-29T04:21:20;45.08;;;24.48;;
26375;SDS011;30544;42.196;24.336;2022-07-29T04:23:47;33.70;;;17.83;;
26375;SDS011;30544;42.196;24.336;2022-07-29T04:26:15;19.50;;;12.85;;
26375;SDS011;30544;42.196;24.336;2022-07-29T04:28:42;20.52;;;11.35;;
26375;SDS011;30544;42.196;24.336;2022-07-29T04:31:10;21.05;;;12.20;;
26375;SDS011;30544;42.196;24.336;2022-07-29T04:33:38;16.25;;;9.55;;
26375;SDS011;30544;42.196;24.336;2022-07-29T04:36:05;12.75;;;10.50;;
26375;SDS011;30544;42.196;24.336;2022-07-29T04:38:32;14.13;;;9.70;;
26375;SDS011;30544;42.196;24.336;2022-07-29T04:40:59;16.77;;;10.18;;
26375;SDS011;30544;42.196;24.336;2022-07-29T04:43:26;15.85;;;9.75;;
26375;SDS011;30544;42.196;24.336;2022-07-29T04:45:53;13.63;;;9.77;;
26375;SDS011;30544;42.196;24.336;2022-07-29T04:48:21;13.13;;;9.40;;
26375;SDS011;30544;42.196;24.336;2022-07-29T04:50:48;14.52;;;8.85;;
26375;SDS011;30544;42.196;24.336;2022-07-29T04:53:14;14.98;;;8.30;;
26375;SDS011;30544;42.196;24.336;2022-07-29T04:55:41;12.57;;;8.15;;
26375;SDS011;30544;42.196;24.336;2022-07-29T04:58:08;16.60;;;8.10;;
26375;SDS011;30544;42.196;24.336;2022-07-29T05:00:35;13.50;;;8.07;;
26375;SDS011;30544;42.196;24.336;2022-07-29T05:03:02;9.27;;;6.57;;
26375;SDS011;30544;42.196;24.336;2022-07-29T05:05:30;11.60;;;7.47;;
26375;SDS011;30544;42.196;24.336;2022-07-29T05:07:57;12.70;;;7.63;;
26375;SDS011;30544;42.196;24.336;2022-07-29T05:10:24;13.35;;;7.57;;
26375;SDS011;30544;42.196;24.336;2022-07-29T05:12:51;11.73;;;7.65;;
26375;SDS011;30544;42.196;24.336;2022-07-29T05:15:17;15.75;;;7.57;;
26375;SDS011;30544;42.196;24.336;2022-07-29T05:17:45;15.57;;;6.75;;
26375;SDS011;30544;42.196;24.336;2022-07-29T05:20:11;15.30;;;7.43;;
26375;SDS011;30544;42.196;24.336;2022-07-29T05:22:39;7.70;;;6.20;;
26375;SDS011;30544;42.196;24.336;2022-07-29T05:25:07;10.75;;;6.80;;
26375;SDS011;30544;42.196;24.336;2022-07-29T05:27:35;6.95;;;6.25;;
26375;SDS011;30544;42.196;24.336;2022-07-29T05:30:02;11.98;;;6.45;;
26375;SDS011;30544;42.196;24.336;2022-07-29T05:32:29;8.70;;;7.10;;
26375;SDS011;30544;42.196;24.336;2022-07-29T05:34:56;10.45;;;6.90;;
26375;SDS011;30544;42.196;24.336;2022-07-29T05:37:23;13.13;;;7.13;;
26375;SDS011;30544;42.196;24.336;2022-07-29T05:39:51;13.63;;;6.72;;
26375;SDS011;30544;42.196;24.336;2022-07-29T05:42:18;24.17;;;6.93;;
26375;SDS011;30544;42.196;24.336;2022-07-29T05:44:45;16.10;;;6.18;;
26375;SDS011;30544;42.196;24.336;2022-07-29T05:47:12;7.65;;;5.53;;
26375;SDS011;30544;42.196;24.336;2022-07-29T05:49:39;12.52;;;6.40;;
26375;SDS011;30544;42.196;24.336;2022-07-29T05:52:06;14.02;;;5.57;;
26375;SDS011;30544;42.196;24.336;2022-07-29T05:54:32;6.55;;;5.07;;
26375;SDS011;30544;42.196;24.336;2022-07-29T05:57:01;9.43;;;5.10;;
26375;SDS011;30544;42.196;24.336;2022-07-29T05:59:28;8.65;;;5.55;;
26375;SDS011;30544;42.196;24.336;2022-07-29T06:01:55;23.95;;;6.38;;
26375;SDS011;30544;42.196;24.336;2022-07-29T06:04:22;35.60;;;7.03;;
26375;SDS011;30544;42.196;24.336;2022-07-29T06:06:49;12.13;;;5.78;;
26375;SDS011;30544;42.196;24.336;2022-07-29T06:09:16;9.55;;;5.40;;
26375;SDS011;30544;42.196;24.336;2022-07-29T06:11:42;11.32;;;5.65;;
26375;SDS011;30544;42.196;24.336;2022-07-29T06:14:10;49.00;;;8.13;;
26375;SDS011;30544;42.196;24.336;2022-07-29T06:16:37;14.93;;;5.85;;
26375;SDS011;30544;42.196;24.336;2022-07-29T06:19:05;12.20;;;6.22;;
26375;SDS011;30544;42.196;24.336;2022-07-29T06:21:31;10.38;;;5.93;;
26375;SDS011;30544;42.196;24.336;2022-07-29T06:23:58;15.80;;;4.78;;
26375;SDS011;30544;42.196;24.336;2022-07-29T06:26:25;16.02;;;5.70;;
26375;SDS011;30544;42.196;24.336;2022-07-29T06:28:52;7.60;;;4.75;;
26375;SDS011;30544;42.196;24.336;2022-07-29T06:31:20;10.43;;;5.00;;
26375;SDS011;30544;42.196;24.336;2022-07-29T06:33:47;11.95;;;5.13;;
26375;SDS011;30544;42.196;24.336;2022-07-29T06:36:14;8.10;;;5.35;;
26375;SDS011;30544;42.196;24.336;2022-07-29T06:38:40;16.13;;;6.22;;
26375;SDS011;30544;42.196;24.336;2022-07-29T06:41:07;17.17;;;6.38;;
26375;SDS011;30544;42.196;24.336;2022-07-29T06:43:38;12.02;;;5.60;;
26375;SDS011;30544;42.196;24.336;2022-07-29T06:46:06;10.05;;;5.72;;
26375;SDS011;30544;42.196;24.336;2022-07-29T06:48:35;24.60;;;6.75;;
26375;SDS011;30544;42.196;24.336;2022-07-29T06:51:03;107.25;;;12.45;;
26375;SDS011;30544;42.196;24.336;2022-07-29T06:53:31;12.50;;;5.88;;
26375;SDS011;30544;42.196;24.336;2022-07-29T06:55:59;11.88;;;6.85;;
26375;SDS011;30544;42.196;24.336;2022-07-29T06:58:27;8.77;;;5.80;;
26375;SDS011;30544;42.196;24.336;2022-07-29T07:00:55;13.63;;;5.68;;
26375;SDS011;30544;42.196;24.336;2022-07-29T07:03:22;15.50;;;6.07;;
26375;SDS011;30544;42.196;24.336;2022-07-29T07:05:51;13.25;;;7.28;;
26375;SDS011;30544;42.196;24.336;2022-07-29T07:08:19;28.92;;;12.23;;
26375;SDS011;30544;42.196;24.336;2022-07-29T07:10:47;10.07;;;7.32;;
26375;SDS011;30544;42.196;24.336;2022-07-29T07:13:14;11.50;;;7.03;;
26375;SDS011;30544;42.196;24.336;2022-07-29T07:15:42;10.77;;;6.88;;
26375;SDS011;30544;42.196;24.336;2022-07-29T07:18:09;9.85;;;6.70;;
26375;SDS011;30544;42.196;24.336;2022-07-29T07:20:36;9.93;;;6.20;;
26375;SDS011;30544;42.196;24.336;2022-07-29T07:23:04;29.50;;;12.25;;
26375;SDS011;30544;42.196;24.336;2022-07-29T07:25:31;58.35;;;28.77;;
26375;SDS011;30544;42.196;24.336;2022-07-29T07:27:58;26.83;;;9.43;;
26375;SDS011;30544;42.196;24.336;2022-07-29T07:30:25;16.20;;;6.85;;
26375;SDS011;30544;42.196;24.336;2022-07-29T07:32:53;49.85;;;8.20;;
26375;SDS011;30544;42.196;24.336;2022-07-29T07:35:20;9.52;;;5.95;;
26375;SDS011;30544;42.196;24.336;2022-07-29T07:37:47;8.82;;;6.55;;
26375;SDS011;30544;42.196;24.336;2022-07-29T07:40:15;15.68;;;7.18;;
26375;SDS011;30544;42.196;24.336;2022-07-29T07:42:42;11.35;;;6.80;;
26375;SDS011;30544;42.196;24.336;2022-07-29T07:45:09;11.20;;;6.53;;
26375;SDS011;30544;42.196;24.336;2022-07-29T07:47:37;14.15;;;6.53;;
26375;SDS011;30544;42.196;24.336;2022-07-29T07:50:05;9.65;;;6.28;;
26375;SDS011;30544;42.196;24.336;2022-07-29T07:52:34;11.85;;;6.53;;
26375;SDS011;30544;42.196;24.336;2022-07-29T07:55:00;8.38;;;6.20;;
26375;SDS011;30544;42.196;24.336;2022-07-29T07:57:29;9.35;;;7.10;;
26375;SDS011;30544;42.196;24.336;2022-07-29T07:59:56;22.58;;;11.43;;
26375;SDS011;30544;42.196;24.336;2022-07-29T08:02:23;6.70;;;5.72;;
26375;SDS011;30544;42.196;24.336;2022-07-29T08:04:49;12.52;;;6.30;;
26375;SDS011;30544;42.196;24.336;2022-07-29T08:07:16;11.60;;;6.18;;
26375;SDS011;30544;42.196;24.336;2022-07-29T08:09:43;9.40;;;5.75;;
26375;SDS011;30544;42.196;24.336;2022-07-29T08:12:10;14.65;;;6.15;;
26375;SDS011;30544;42.196;24.336;2022-07-29T08:14:38;10.15;;;5.72;;
26375;SDS011;30544;42.196;24.336;2022-07-29T08:17:05;7.32;;;6.00;;
26375;SDS011;30544;42.196;24.336;2022-07-29T08:19:31;13.20;;;6.28;;
26375;SDS011;30544;42.196;24.336;2022-07-29T08:21:58;21.50;;;6.20;;
26375;SDS011;30544;42.196;24.336;2022-07-29T08:24:25;7.53;;;5.80;;
26375;SDS011;30544;42.196;24.336;2022-07-29T08:27:17;6.85;;;5.60;;
26375;SDS011;30544;42.196;24.336;2022-07-29T08:29:46;12.02;;;6.35;;
26375;SDS011;30544;42.196;24.336;2022-07-29T08:32:13;13.07;;;6.30;;
26375;SDS011;30544;42.196;24.336;2022-07-29T08:34:39;11.10;;;6.68;;
26375;SDS011;30544;42.196;24.336;2022-07-29T08:37:07;12.43;;;6.75;;
26375;SDS011;30544;42.196;24.336;2022-07-29T08:39:34;7.88;;;6.28;;
26375;SDS011;30544;42.196;24.336;2022-07-29T08:42:01;11.70;;;6.75;;
26375;SDS011;30544;42.196;24.336;2022-07-29T08:44:27;10.27;;;5.95;;
26375;SDS011;30544;42.196;24.336;2022-07-29T08:46:56;15.32;;;6.38;;
26375;SDS011;30544;42.196;24.336;2022-07-29T08:49:23;10.73;;;5.85;;
26375;SDS011;30544;42.196;24.336;2022-07-29T08:51:50;8.07;;;6.00;;
26375;SDS011;30544;42.196;24.336;2022-07-29T08:54:19;12.10;;;8.73;;
26375;SDS011;30544;42.196;24.336;2022-07-29T08:56:48;48.15;;;24.45;;
26375;SDS011;30544;42.196;24.336;2022-07-29T08:59:16;11.13;;;5.85;;
26375;SDS011;30544;42.196;24.336;2022-07-29T09:01:46;11.32;;;5.53;;
26375;SDS011;30544;42.196;24.336;2022-07-29T09:04:16;9.95;;;6.15;;
26375;SDS011;30544;42.196;24.336;2022-07-29T09:06:46;17.50;;;8.93;;
26375;SDS011;30544;42.196;24.336;2022-07-29T09:09:15;9.02;;;5.72;;
26375;SDS011;30544;42.196;24.336;2022-07-29T09:11:42;12.07;;;7.43;;
26375;SDS011;30544;42.196;24.336;2022-07-29T09:14:10;7.35;;;5.93;;
26375;SDS011;30544;42.196;24.336;2022-07-29T09:16:45;16.63;;;5.60;;
26375;SDS011;30544;42.196;24.336;2022-07-29T09:19:20;8.13;;;5.50;;
26375;SDS011;30544;42.196;24.336;2022-07-29T09:21:51;9.85;;;5.32;;
26375;SDS011;30544;42.196;24.336;2022-07-29T09:24:23;8.18;;;6.03;;
26375;SDS011;30544;42.196;24.336;2022-07-29T09:26:51;9.07;;;5.55;;
26375;SDS011;30544;42.196;24.336;2022-07-29T09:29:19;11.00;;;5.43;;
26375;SDS011;30544;42.196;24.336;2022-07-29T09:31:47;7.90;;;5.18;;
26375;SDS011;30544;42.196;24.336;2022-07-29T09:34:16;6.13;;;4.82;;
26375;SDS011;30544;42.196;24.336;2022-07-29T09:36:49;6.93;;;4.97;;
26375;SDS011;30544;42.196;24.336;2022-07-29T09:39:26;7.45;;;5.40;;
26375;SDS011;30544;42.196;24.336;2022-07-29T09:41:54;7.93;;;5.00;;
26375;SDS011;30544;42.196;24.336;2022-07-29T09:44:24;8.90;;;5.82;;
26375;SDS011;30544;42.196;24.336;2022-07-29T09:46:52;7.85;;;5.38;;
26375;SDS011;30544;42.196;24.336;2022-07-29T09:49:20;10.20;;;5.30;;
26375;SDS011;30544;42.196;24.336;2022-07-29T09:51:49;11.38;;;5.00;;
26375;SDS011;30544;42.196;24.336;2022-07-29T09:54:26;6.15;;;4.68;;
26375;SDS011;30544;42.196;24.336;2022-07-29T09:56:54;7.80;;;5.20;;
26375;SDS011;30544;42.196;24.336;2022-07-29T09:59:21;7.55;;;4.20;;
26375;SDS011;30544;42.196;24.336;2022-07-29T10:01:51;8.18;;;4.00;;
26375;SDS011;30544;42.196;24.336;2022-07-29T10:04:19;8.18;;;4.22;;
26375;SDS011;30544;42.196;24.336;2022-07-29T10:06:57;7.28;;;3.70;;
26375;SDS011;30544;42.196;24.336;2022-07-29T10:09:24;7.55;;;3.97;;
26375;SDS011;30544;42.196;24.336;2022-07-29T10:12:08;8.45;;;4.15;;
26375;SDS011;30544;42.196;24.336;2022-07-29T10:14:36;6.10;;;3.60;;
26375;SDS011;30544;42.196;24.336;2022-07-29T10:17:03;4.95;;;3.67;;
26375;SDS011;30544;42.196;24.336;2022-07-29T10:19:31;4.80;;;3.42;;
26375;SDS011;30544;42.196;24.336;2022-07-29T10:22:01;4.63;;;3.58;;
26375;SDS011;30544;42.196;24.336;2022-07-29T10:24:29;8.93;;;3.97;;
26375;SDS011;30544;42.196;24.336;2022-07-29T10:26:58;11.10;;;4.43;;
26375;SDS011;30544;42.196;24.336;2022-07-29T10:29:26;8.55;;;4.15;;
26375;SDS011;30544;42.196;24.336;2022-07-29T10:31:57;8.07;;;3.67;;
26375;SDS011;30544;42.196;24.336;2022-07-29T10:34:50;7.68;;;3.25;;
26375;SDS011;30544;42.196;24.336;2022-07-29T10:37:28;8.10;;;3.58;;
26375;SDS011;30544;42.196;24.336;2022-07-29T10:40:06;4.05;;;3.15;;
26375;SDS011;30544;42.196;24.336;2022-07-29T10:42:59;8.80;;;4.03;;
26375;SDS011;30544;42.196;24.336;2022-07-29T10:45:35;5.38;;;2.83;;
26375;SDS011;30544;42.196;24.336;2022-07-29T10:48:02;7.88;;;3.38;;
26375;SDS011;30544;42.196;24.336;2022-07-29T10:50:45;4.45;;;3.47;;
26375;SDS011;30544;42.196;24.336;2022-07-29T10:53:20;7.57;;;3.30;;
26375;SDS011;30544;42.196;24.336;2022-07-29T10:55:47;3.83;;;3.33;;
26375;SDS011;30544;42.196;24.336;2022-07-29T10:58:16;5.97;;;3.30;;
26375;SDS011;30544;42.196;24.336;2022-07-29T11:00:44;7.20;;;3.45;;
26375;SDS011;30544;42.196;24.336;2022-07-29T11:06:09;4.78;;;3.50;;
26375;SDS011;30544;42.196;24.336;2022-07-29T11:08:38;4.15;;;3.15;;
26375;SDS011;30544;42.196;24.336;2022-07-29T11:14:06;6.03;;;3.30;;
26375;SDS011;30544;42.196;24.336;2022-07-29T11:19:29;9.65;;;3.65;;
26375;SDS011;30544;42.196;24.336;2022-07-29T11:21:57;6.22;;;3.20;;
26375;SDS011;30544;42.196;24.336;2022-07-29T11:24:26;4.18;;;3.10;;
26375;SDS011;30544;42.196;24.336;2022-07-29T11:27:14;6.70;;;2.80;;
26375;SDS011;30544;42.196;24.336;2022-07-29T11:29:52;5.50;;;2.58;;
26375;SDS011;30544;42.196;24.336;2022-07-29T11:32:22;5.13;;;3.03;;
26375;SDS011;30544;42.196;24.336;2022-07-29T11:35:09;5.90;;;2.90;;
26375;SDS011;30544;42.196;24.336;2022-07-29T11:37:38;4.28;;;2.78;;
26375;SDS011;30544;42.196;24.336;2022-07-29T11:40:16;5.05;;;2.95;;
26375;SDS011;30544;42.196;24.336;2022-07-29T11:42:47;6.43;;;2.90;;
26375;SDS011;30544;42.196;24.336;2022-07-29T11:45:20;6.63;;;2.75;;
26375;SDS011;30544;42.196;24.336;2022-07-29T11:47:57;8.63;;;2.75;;
26375;SDS011;30544;42.196;24.336;2022-07-29T11:50:32;8.40;;;2.88;;
26375;SDS011;30544;42.196;24.336;2022-07-29T11:53:01;3.78;;;2.40;;
26375;SDS011;30544;42.196;24.336;2022-07-29T11:55:31;5.05;;;2.60;;
26375;SDS011;30544;42.196;24.336;2022-07-29T11:58:00;3.63;;;2.45;;
26375;SDS011;30544;42.196;24.336;2022-07-29T12:00:28;6.60;;;2.50;;
26375;SDS011;30544;42.196;24.336;2022-07-29T12:02:58;4.22;;;2.40;;
26375;SDS011;30544;42.196;24.336;2022-07-29T12:05:39;4.65;;;2.78;;
26375;SDS011;30544;42.196;24.336;2022-07-29T12:08:08;4.60;;;2.83;;
26375;SDS011;30544;42.196;24.336;2022-07-29T12:10:42;7.90;;;2.47;;
26375;SDS011;30544;42.196;24.336;2022-07-29T12:13:09;4.30;;;2.40;;
26375;SDS011;30544;42.196;24.336;2022-07-29T12:15:36;9.05;;;2.60;;
26375;SDS011;30544;42.196;24.336;2022-07-29T12:18:10;3.40;;;2.50;;
26375;SDS011;30544;42.196;24.336;2022-07-29T12:20:37;3.85;;;2.50;;
26375;SDS011;30544;42.196;24.336;2022-07-29T12:23:05;9.07;;;3.00;;
26375;SDS011;30544;42.196;24.336;2022-07-29T12:25:33;4.03;;;2.65;;
26375;SDS011;30544;42.196;24.336;2022-07-29T12:28:02;8.25;;;2.53;;
26375;SDS011;30544;42.196;24.336;2022-07-29T12:30:35;5.55;;;2.30;;
26375;SDS011;30544;42.196;24.336;2022-07-29T12:33:15;4.65;;;2.55;;
26375;SDS011;30544;42.196;24.336;2022-07-29T12:35:44;4.50;;;2.38;;
26375;SDS011;30544;42.196;24.336;2022-07-29T12:38:13;8.52;;;2.53;;
26375;SDS011;30544;42.196;24.336;2022-07-29T12:40:41;4.65;;;2.38;;
26375;SDS011;30544;42.196;24.336;2022-07-29T12:43:11;4.28;;;2.40;;
26375;SDS011;30544;42.196;24.336;2022-07-29T12:45:39;5.95;;;2.33;;
26375;SDS011;30544;42.196;24.336;2022-07-29T12:48:08;4.47;;;2.22;;
26375;SDS011;30544;42.196;24.336;2022-07-29T12:50:35;8.30;;;2.80;;
26375;SDS011;30544;42.196;24.336;2022-07-29T12:53:09;5.38;;;1.95;;
26375;SDS011;30544;42.196;24.336;2022-07-29T12:55:37;3.35;;;2.40;;
26375;SDS011;30544;42.196;24.336;2022-07-29T12:58:05;5.75;;;2.60;;
26375;SDS011;30544;42.196;24.336;2022-07-29T13:00:34;7.65;;;2.70;;
26375;SDS011;30544;42.196;24.336;2022-07-29T13:03:01;5.70;;;2.20;;
26375;SDS011;30544;42.196;24.336;2022-07-29T13:05:40;8.43;;;2.40;;
26375;SDS011;30544;42.196;24.336;2022-07-29T13:08:09;4.28;;;2.40;;
26375;SDS011;30544;42.196;24.336;2022-07-29T13:10:37;2.70;;;2.35;;
26375;SDS011;30544;42.196;24.336;2022-07-29T13:13:05;5.72;;;2.58;;
26375;SDS011;30544;42.196;24.336;2022-07-29T13:15:34;5.47;;;2.60;;
26375;SDS011;30544;42.196;24.336;2022-07-29T13:18:02;4.60;;;2.58;;
26375;SDS011;30544;42.196;24.336;2022-07-29T13:20:29;4.53;;;2.40;;
26375;SDS011;30544;42.196;24.336;2022-07-29T13:22:56;8.00;;;2.55;;
26375;SDS011;30544;42.196;24.336;2022-07-29T13:25:24;7.25;;;3.53;;
26375;SDS011;30544;42.196;24.336;2022-07-29T13:27:52;3.70;;;3.10;;
26375;SDS011;30544;42.196;24.336;2022-07-29T13:30:20;6.22;;;2.90;;
26375;SDS011;30544;42.196;24.336;2022-07-29T13:32:49;4.05;;;2.55;;
26375;SDS011;30544;42.196;24.336;2022-07-29T13:35:17;6.97;;;3.13;;
26375;SDS011;30544;42.196;24.336;2022-07-29T13:37:45;6.55;;;3.15;;
26375;SDS011;30544;42.196;24.336;2022-07-29T13:40:12;8.23;;;3.15;;
26375;SDS011;30544;42.196;24.336;2022-07-29T13:42:40;5.75;;;3.00;;
26375;SDS011;30544;42.196;24.336;2022-07-29T13:45:08;10.00;;;2.50;;
26375;SDS011;30544;42.196;24.336;2022-07-29T13:47:37;5.68;;;2.60;;
26375;SDS011;30544;42.196;24.336;2022-07-29T13:50:06;3.83;;;3.00;;
26375;SDS011;30544;42.196;24.336;2022-07-29T13:52:35;8.82;;;2.58;;
26375;SDS011;30544;42.196;24.336;2022-07-29T13:55:04;5.25;;;3.13;;
26375;SDS011;30544;42.196;24.336;2022-07-29T13:57:31;10.35;;;3.30;;
26375;SDS011;30544;42.196;24.336;2022-07-29T13:59:58;6.93;;;2.97;;
26375;SDS011;30544;42.196;24.336;2022-07-29T14:02:25;6.15;;;2.95;;
26375;SDS011;30544;42.196;24.336;2022-07-29T14:04:52;4.10;;;3.10;;
26375;SDS011;30544;42.196;24.336;2022-07-29T14:07:20;7.82;;;2.90;;
26375;SDS011;30544;42.196;24.336;2022-07-29T14:09:47;4.72;;;3.15;;
26375;SDS011;30544;42.196;24.336;2022-07-29T14:12:15;4.85;;;3.00;;
26375;SDS011;30544;42.196;24.336;2022-07-29T14:14:42;4.75;;;3.03;;
26375;SDS011;30544;42.196;24.336;2022-07-29T14:17:09;5.50;;;2.75;;
26375;SDS011;30544;42.196;24.336;2022-07-29T14:19:36;5.90;;;3.00;;
26375;SDS011;30544;42.196;24.336;2022-07-29T14:22:03;9.57;;;2.80;;
26375;SDS011;30544;42.196;24.336;2022-07-29T14:24:32;4.18;;;2.60;;
26375;SDS011;30544;42.196;24.336;2022-07-29T14:26:58;5.93;;;2.25;;
26375;SDS011;30544;42.196;24.336;2022-07-29T14:29:25;5.30;;;2.53;;
26375;SDS011;30544;42.196;24.336;2022-07-29T14:31:52;6.25;;;2.80;;
26375;SDS011;30544;42.196;24.336;2022-07-29T14:34:19;7.53;;;3.10;;
26375;SDS011;30544;42.196;24.336;2022-07-29T14:36:46;8.77;;;3.30;;
26375;SDS011;30544;42.196;24.336;2022-07-29T14:39:13;9.68;;;3.15;;
26375;SDS011;30544;42.196;24.336;2022-07-29T14:41:43;5.80;;;3.03;;
26375;SDS011;30544;42.196;24.336;2022-07-29T14:44:09;9.18;;;2.63;;
26375;SDS011;30544;42.196;24.336;2022-07-29T14:46:36;5.97;;;2.90;;
26375;SDS011;30544;42.196;24.336;2022-07-29T14:49:04;5.63;;;2.72;;
26375;SDS011;30544;42.196;24.336;2022-07-29T14:51:31;8.90;;;2.80;;